Time;durP1;ratioP1;P1;durP2;ratioP2;P2;SDS_P1;SDS_P2;PMS_P1;PMS_P2;Temp;Humidity;BMP_temperature;BMP_pressure;BME280_temperature;BME280_humidity;BME280_pressure;Samples;Min_cycle;Max_cycle;Signal;HPM_P1;HPM_P2
2024/01/22 00:01:57;;;;;;;2.03;1.23;;;7.30;99.90;;;;;;5032943;28;20067;-62
2024/01/22 00:04:23;;;;;;;1.13;1.02;;;7.20;99.90;;;;;;5033053;28;20047;-61
2024/01/22 00:06:52;;;;;;;2.08;1.27;;;7.20;99.90;;;;;;5032786;28;20034;-62
2024/01/22 00:09:18;;;;;;;1.23;1.10;;;7.80;99.90;;;;;;5014850;28;20057;-60
2024/01/22 00:11:43;;;;;;;1.90;1.63;;;7.30;99.90;;;;;;5032746;28;20053;-61
2024/01/22 00:14:09;;;;;;;1.05;0.95;;;7.40;99.90;;;;;;5032459;28;20041;-69
2024/01/22 00:16:41;;;;;;;1.20;1.10;;;7.20;99.90;;;;;;5014738;28;20037;-65
2024/01/22 00:19:07;;;;;;;1.83;1.10;;;7.30;99.90;;;;;;5032420;28;20404;-65
2024/01/22 00:21:33;;;;;;;0.95;0.88;;;7.20;99.90;;;;;;5032576;28;20038;-65
2024/01/22 00:23:59;;;;;;;1.70;1.17;;;7.30;99.90;;;;;;5032559;28;20478;-64
2024/01/22 00:26:24;;;;;;;1.08;1.05;;;7.30;99.90;;;;;;5032591;28;20512;-71
2024/01/22 00:28:50;;;;;;;1.15;1.05;;;7.40;99.90;;;;;;5014594;28;20048;-70
2024/01/22 00:31:15;;;;;;;0.90;0.90;;;7.50;99.90;;;;;;5014788;28;20053;-71
2024/01/22 00:33:44;;;;;;;0.80;0.80;;;7.40;99.90;;;;;;5014570;28;20375;-71
2024/01/22 00:36:13;;;;;;;1.13;1.00;;;7.70;99.90;;;;;;5014620;28;20048;-70
2024/01/22 00:38:42;;;;;;;1.13;1.02;;;7.40;99.90;;;;;;5014678;28;20092;-71
2024/01/22 00:41:08;;;;;;;0.90;0.90;;;7.50;99.90;;;;;;5014461;28;20049;-71
2024/01/22 00:43:38;;;;;;;1.50;1.10;;;7.50;99.90;;;;;;5014556;28;20042;-69
2024/01/22 00:46:04;;;;;;;0.90;0.90;;;7.50;99.90;;;;;;5014298;28;20382;-61
2024/01/22 00:48:30;;;;;;;0.85;0.82;;;;;;;;;;5031816;28;20052;-61
2024/01/22 00:50:55;;;;;;;0.80;0.80;;;7.70;99.90;;;;;;5031956;28;20055;-62
2024/01/22 00:53:21;;;;;;;1.02;0.90;;;7.60;99.90;;;;;;5014012;28;20494;-61
2024/01/22 00:56:00;;;;;;;1.38;0.98;;;7.70;99.90;;;;;;5032200;28;20063;-61
2024/01/22 00:58:25;;;;;;;1.92;1.65;;;7.70;99.90;;;;;;5031915;28;20041;-61
2024/01/22 01:00:51;;;;;;;0.80;0.80;;;7.80;99.90;;;;;;5032098;28;20488;-61
2024/01/22 01:03:17;;;;;;;1.20;1.10;;;7.80;99.90;;;;;;5014085;28;20045;-61
2024/01/22 01:05:42;;;;;;;1.45;1.13;;;7.80;99.90;;;;;;5031812;28;20045;-61
2024/01/22 01:08:08;;;;;;;1.10;1.00;;;7.80;99.90;;;;;;5014103;28;20052;-61
2024/01/22 01:10:33;;;;;;;1.20;1.10;;;7.80;99.90;;;;;;5032116;28;20378;-62
2024/01/22 01:12:59;;;;;;;0.60;0.60;;;8.00;99.90;;;;;;5032053;28;20048;-61
2024/01/22 01:15:25;;;;;;;1.60;1.20;;;8.00;99.90;;;;;;5031651;28;20029;-61
2024/01/22 01:17:50;;;;;;;0.88;0.88;;;8.10;99.90;;;;;;5032030;28;20049;-66
2024/01/22 01:20:16;;;;;;;1.10;1.00;;;8.00;99.90;;;;;;5031518;28;20124;-65
2024/01/22 01:22:42;;;;;;;1.05;0.93;;;8.00;99.90;;;;;;5031674;28;20030;-65
2024/01/22 01:25:08;;;;;;;0.75;0.73;;;8.10;99.90;;;;;;5031634;28;20049;-65
2024/01/22 01:27:33;;;;;;;1.27;1.17;;;8.10;99.90;;;;;;5014196;28;20073;-65
2024/01/22 01:29:59;;;;;;;1.05;0.80;;;8.00;99.90;;;;;;5031896;28;20038;-65
2024/01/22 01:32:26;;;;;;;1.05;1.00;;;8.00;99.90;;;;;;5031907;28;20084;-65
2024/01/22 01:34:51;;;;;;;0.90;0.77;;;8.00;99.90;;;;;;5031820;28;20487;-67
2024/01/22 01:37:17;;;;;;;0.80;0.80;;;8.00;99.90;;;;;;5031810;28;20037;-66
2024/01/22 01:39:43;;;;;;;0.80;0.80;;;8.00;99.90;;;;;;5031790;28;20093;-66
2024/01/22 01:42:08;;;;;;;0.90;0.90;;;8.00;99.90;;;;;;5031464;28;20033;-66
2024/01/22 01:44:50;;;;;;;1.17;0.90;;;8.00;99.90;;;;;;5031412;28;20049;-65
2024/01/22 01:47:29;;;;;;;1.63;1.30;;;7.90;99.90;;;;;;5031551;28;20046;-68
2024/01/22 01:49:54;;;;;;;1.27;0.98;;;8.00;99.90;;;;;;5031791;28;20092;-66
2024/01/22 01:52:26;;;;;;;1.08;1.00;;;7.90;99.90;;;;;;5031518;28;20458;-66
2024/01/22 01:54:52;;;;;;;1.67;1.13;;;8.10;99.90;;;;;;5013518;28;20096;-66
2024/01/22 01:57:20;;;;;;;1.52;1.10;;;7.90;99.90;;;;;;5031757;28;20381;-67
2024/01/22 01:59:45;;;;;;;1.10;1.00;;;8.20;99.90;;;;;;4997261;28;20037;-66
2024/01/22 02:02:13;;;;;;;1.40;1.30;;;7.90;99.90;;;;;;5035141;28;20033;-67
2024/01/22 02:04:39;;;;;;;1.50;1.10;;;;;;;;;;5035063;28;20045;-66
2024/01/22 02:07:05;;;;;;;1.20;1.10;;;;;;;;;;5035139;28;20041;-67
2024/01/22 02:09:50;;;;;;;1.83;1.33;;;;;;;;;;5034958;28;20049;-67
2024/01/22 02:12:17;;;;;;;1.85;1.08;;;;;;;;;;5034633;28;20128;-67
2024/01/22 02:14:43;;;;;;;0.80;0.80;;;;;;;;;;5035027;28;20077;-67
2024/01/22 02:17:09;;;;;;;0.95;0.95;;;;;;;;;;5034901;28;20050;-67
2024/01/22 02:19:35;;;;;;;0.95;0.95;;;;;;;;;;5034793;28;20038;-67
2024/01/22 02:22:01;;;;;;;0.85;0.80;;;;;;;;;;5034772;28;20044;-67
2024/01/22 02:24:27;;;;;;;0.93;0.90;;;;;;;;;;5034713;28;20425;-67
2024/01/22 02:26:53;;;;;;;1.67;1.10;;;;;;;;;;5034579;28;20052;-63
2024/01/22 02:29:19;;;;;;;1.10;1.00;;;;;;;;;;5034378;28;20405;-63
2024/01/22 02:31:48;;;;;;;1.23;1.13;;;;;;;;;;5034358;28;20041;-63
2024/01/22 02:34:14;;;;;;;0.80;0.80;;;;;;;;;;5034568;28;20124;-63
2024/01/22 02:36:40;;;;;;;1.25;1.15;;;;;;;;;;5016458;28;20045;-63
2024/01/22 02:39:06;;;;;;;1.17;1.00;;;;;;;;;;5034143;28;20056;-64
2024/01/22 02:41:32;;;;;;;0.88;0.88;;;;;;;;;;5034253;28;20508;-63
2024/01/22 02:43:58;;;;;;;1.48;1.10;;;;;;;;;;5034015;28;20041;-63
2024/01/22 02:46:27;;;;;;;1.60;1.30;;;;;;;;;;5034437;28;20037;-63
2024/01/22 02:48:53;;;;;;;1.00;1.00;;;;;;;;;;5034342;28;20386;-63
2024/01/22 02:51:19;;;;;;;1.05;0.95;;;;;;;;;;5033900;28;20053;-63
2024/01/22 02:53:46;;;;;;;1.70;1.13;;;;;;;;;;5033582;28;20050;-63
2024/01/22 02:56:19;;;;;;;1.55;1.15;;;;;;;;;;5034077;28;20053;-63
2024/01/22 02:58:45;;;;;;;0.70;0.70;;;;;;;;;;5033788;28;20041;-63
2024/01/22 03:01:11;;;;;;;1.20;1.10;;;;;;;;;;5033696;28;20045;-63
2024/01/22 03:03:37;;;;;;;1.60;1.20;;;;;;;;;;5033966;28;20276;-63
2024/01/22 03:06:03;;;;;;;0.70;0.70;;;;;;;;;;5015905;28;20477;-63
2024/01/22 03:08:29;;;;;;;0.88;0.88;;;;;;;;;;5033715;28;20124;-60
2024/01/22 03:10:56;;;;;;;1.00;1.00;;;;;;;;;;5016217;28;20483;-59
2024/01/22 03:13:22;;;;;;;1.30;1.20;;;;;;;;;;5015010;28;20088;-60
2024/01/22 03:15:48;;;;;;;1.17;1.08;;;;;;;;;;5033767;28;20091;-61
2024/01/22 03:18:14;;;;;;;0.95;0.90;;;;;;;;;;5015873;28;20070;-59
2024/01/22 03:20:40;;;;;;;0.98;0.90;;;;;;;;;;5033644;28;20064;-60
2024/01/22 03:23:06;;;;;;;0.82;0.80;;;;;;;;;;5015936;28;20489;-61
2024/01/22 03:25:32;;;;;;;1.13;1.02;;;;;;;;;;5033515;28;20039;-60
2024/01/22 03:27:58;;;;;;;0.85;0.85;;;;;;;;;;5033505;28;20128;-61
2024/01/22 03:30:24;;;;;;;0.80;0.80;;;;;;;;;;5033272;28;20123;-60
2024/01/22 03:32:50;;;;;;;0.85;0.85;;;;;;;;;;5015490;28;20045;-60
2024/01/22 03:35:16;;;;;;;1.20;1.10;;;;;;;;;;5033252;28;20041;-60
2024/01/22 03:37:42;;;;;;;1.30;1.10;;;;;;;;;;5033506;28;20041;-66
2024/01/22 03:40:09;;;;;;;1.10;1.00;;;;;;;;;;5033267;28;20045;-66
2024/01/22 03:42:36;;;;;;;1.13;1.02;;;;;;;;;;5015374;28;20050;-66
2024/01/22 03:45:02;;;;;;;0.98;0.95;;;;;;;;;;5015187;28;20124;-65
2024/01/22 03:47:28;;;;;;;0.73;0.73;;;;;;;;;;5033096;28;20501;-66
2024/01/22 03:49:54;;;;;;;1.23;1.13;;;;;;;;;;5015165;28;20128;-66
2024/01/22 03:52:27;;;;;;;1.85;1.02;;;;;;;;;;5032347;28;20042;-66
2024/01/22 03:54:59;;;;;;;0.98;0.98;;;;;;;;;;5033108;28;20409;-66
2024/01/22 03:57:25;;;;;;;0.60;0.60;;;;;;;;;;5015136;28;20601;-66
2024/01/22 03:59:51;;;;;;;0.82;0.80;;;;;;;;;;5014787;28;20056;-66
2024/01/22 04:02:18;;;;;;;1.05;0.88;;;;;;;;;;5015017;28;20046;-66
2024/01/22 04:04:44;;;;;;;0.88;0.82;;;;;;;;;;5032868;28;20043;-66
2024/01/22 04:07:10;;;;;;;1.00;1.00;;;;;;;;;;5032800;28;20087;-67
2024/01/22 04:09:36;;;;;;;0.70;0.70;;;;;;;;;;5014929;28;20049;-66
2024/01/22 04:12:03;;;;;;;1.10;1.00;;;;;;;;;;5032727;28;20048;-66
2024/01/22 04:14:30;;;;;;;0.60;0.60;;;;;;;;;;5032652;28;20041;-66
2024/01/22 04:16:56;;;;;;;0.73;0.73;;;;;;;;;;5032358;28;20046;-66
2024/01/22 04:19:22;;;;;;;0.70;0.70;;;;;;;;;;5032419;28;20045;-66
2024/01/22 04:21:48;;;;;;;0.80;0.80;;;8.60;99.90;;;;;;5032525;28;20041;-66
2024/01/22 04:24:13;;;;;;;1.20;0.90;;;8.60;99.90;;;;;;5032135;28;20370;-65
2024/01/22 04:26:39;;;;;;;0.80;0.80;;;8.60;99.90;;;;;;5032517;28;20416;-65
2024/01/22 04:29:05;;;;;;;0.80;0.80;;;8.60;99.90;;;;;;5014607;28;20096;-66
2024/01/22 04:31:30;;;;;;;1.17;0.93;;;8.60;99.90;;;;;;5032394;28;20033;-66
2024/01/22 04:33:56;;;;;;;1.02;0.90;;;8.80;99.90;;;;;;5014450;28;20048;-66
2024/01/22 04:36:22;;;;;;;0.73;0.73;;;8.60;99.90;;;;;;5032440;28;20037;-65
2024/01/22 04:38:47;;;;;;;0.80;0.80;;;8.60;99.90;;;;;;5032411;28;20099;-66
2024/01/22 04:41:13;;;;;;;0.63;0.63;;;8.60;99.90;;;;;;5032258;28;20045;-65
2024/01/22 04:43:39;;;;;;;0.80;0.80;;;8.70;99.90;;;;;;5031991;28;20390;-66
2024/01/22 04:46:06;;;;;;;0.88;0.88;;;9.50;99.90;;;;;;5032106;28;20034;-65
2024/01/22 04:48:31;;;;;;;0.70;0.70;;;8.80;99.90;;;;;;5032346;28;20042;-70
2024/01/22 04:50:57;;;;;;;0.88;0.88;;;8.80;99.90;;;;;;5014184;28;20498;-70
2024/01/22 04:53:23;;;;;;;0.70;0.70;;;8.90;99.90;;;;;;5013830;28;20073;-68
2024/01/22 04:55:55;;;;;;;0.70;0.70;;;8.90;99.90;;;;;;5014156;28;20060;-69
2024/01/22 04:58:21;;;;;;;0.80;0.80;;;8.90;99.90;;;;;;5031912;28;20037;-69
2024/01/22 05:00:46;;;;;;;0.60;0.60;;;8.90;99.90;;;;;;5031804;28;20637;-69
2024/01/22 05:03:12;;;;;;;0.73;0.73;;;9.00;99.90;;;;;;5014516;28;20816;-69
2024/01/22 05:05:37;;;;;;;0.70;0.70;;;9.00;99.90;;;;;;5032135;28;20045;-68
2024/01/22 05:08:03;;;;;;;1.05;0.93;;;9.00;99.90;;;;;;5031780;28;20045;-69
2024/01/22 05:10:29;;;;;;;0.90;0.90;;;9.00;99.90;;;;;;5014301;28;20068;-70
2024/01/22 05:12:55;;;;;;;0.73;0.73;;;9.00;99.90;;;;;;5014260;28;20050;-71
2024/01/22 05:15:20;;;;;;;0.70;0.70;;;9.10;99.90;;;;;;5032099;28;20531;-69
2024/01/22 05:17:46;;;;;;;0.60;0.60;;;9.10;99.90;;;;;;5031854;28;20048;-69
2024/01/22 05:20:12;;;;;;;0.93;0.70;;;9.40;99.90;;;;;;5013810;28;20125;-69
2024/01/22 05:22:38;;;;;;;0.73;0.73;;;9.30;99.90;;;;;;5013968;28;20091;-68
2024/01/22 05:25:04;;;;;;;0.70;0.70;;;9.20;99.90;;;;;;5031990;28;20041;-69
2024/01/22 05:27:30;;;;;;;0.70;0.70;;;9.30;99.90;;;;;;5031709;28;20045;-69
2024/01/22 05:29:56;;;;;;;0.80;0.80;;;9.30;99.90;;;;;;5014001;28;20145;-63
2024/01/22 05:32:21;;;;;;;0.60;0.60;;;9.40;99.90;;;;;;5031815;28;20124;-63
2024/01/22 05:34:47;;;;;;;0.80;0.80;;;9.50;99.90;;;;;;5031822;28;20053;-63
2024/01/22 05:37:13;;;;;;;0.60;0.60;;;9.50;99.90;;;;;;5017840;28;20041;-64
2024/01/22 05:39:38;;;;;;;0.82;0.80;;;9.50;99.90;;;;;;5035149;28;20068;-63
2024/01/22 05:42:04;;;;;;;0.80;0.80;;;9.60;99.90;;;;;;5035440;28;20121;-63
2024/01/22 05:44:30;;;;;;;0.70;0.70;;;9.60;99.90;;;;;;5035471;28;20073;-63
2024/01/22 05:46:56;;;;;;;0.70;0.70;;;9.70;99.90;;;;;;5034996;28;20092;-63
2024/01/22 05:49:22;;;;;;;0.73;0.73;;;9.80;99.90;;;;;;5035359;28;20045;-63
2024/01/22 05:51:47;;;;;;;0.70;0.70;;;9.80;99.90;;;;;;5035071;28;20111;-64
2024/01/22 05:54:21;;;;;;;0.82;0.82;;;9.80;99.90;;;;;;5034809;28;20057;-63
2024/01/22 05:56:46;;;;;;;0.63;0.63;;;9.90;99.90;;;;;;5035278;28;20386;-63
2024/01/22 05:59:12;;;;;;;0.77;0.70;;;9.90;99.90;;;;;;5017451;28;20103;-63
2024/01/22 06:01:37;;;;;;;0.93;0.82;;;9.90;99.90;;;;;;5017102;28;20049;-63
2024/01/22 06:04:06;;;;;;;0.70;0.70;;;10.10;99.90;;;;;;5035185;28;20462;-63
2024/01/22 06:06:32;;;;;;;0.75;0.75;;;10.10;99.90;;;;;;5034942;28;20116;-63
2024/01/22 06:08:58;;;;;;;0.70;0.70;;;10.00;99.90;;;;;;5034941;28;20517;-63
2024/01/22 06:11:23;;;;;;;0.80;0.80;;;10.10;99.90;;;;;;5017032;28;20508;-64
2024/01/22 06:13:50;;;;;;;0.60;0.60;;;10.20;99.90;;;;;;5034797;28;20068;-63
2024/01/22 06:16:16;;;;;;;0.70;0.70;;;;;;;;;;5034858;28;20496;-64
2024/01/22 06:18:45;;;;;;;1.05;0.80;;;;;;;;;;5034829;28;20401;-64
2024/01/22 06:21:15;;;;;;;0.68;0.68;;;;;;;;;;5034506;28;20049;-63
2024/01/22 06:23:41;;;;;;;2.25;0.70;;;;;;;;;;5034758;28;20037;-63
2024/01/22 06:26:09;;;;;;;0.60;0.60;;;;;;;;;;5034421;28;20053;-62
2024/01/22 06:28:35;;;;;;;1.27;0.68;;;;;;;;;;5034665;28;20039;-63
2024/01/22 06:31:01;;;;;;;0.60;0.60;;;;;;;;;;5034604;28;20037;-62
2024/01/22 06:33:27;;;;;;;0.70;0.70;;;;;;;;;;5034673;28;20081;-62
2024/01/22 06:35:53;;;;;;;0.70;0.70;;;;;;;;;;5034588;28;20083;-63
2024/01/22 06:38:19;;;;;;;0.70;0.70;;;;;;;;;;5016379;28;20041;-63
2024/01/22 06:40:45;;;;;;;0.50;0.50;;;;;;;;;;5034540;28;20091;-63
2024/01/22 06:43:11;;;;;;;0.50;0.50;;;;;;;;;;5034060;28;20033;-63
2024/01/22 06:45:38;;;;;;;0.47;0.47;;;;;;;;;;5034136;28;20076;-61
2024/01/22 06:48:04;;;;;;;0.50;0.50;;;;;;;;;;5034127;28;20477;-62
2024/01/22 06:50:30;;;;;;;0.55;0.55;;;;;;;;;;5034205;28;20423;-64
2024/01/22 06:53:03;;;;;;;0.73;0.60;;;;;;;;;;5033760;28;20050;-62
2024/01/22 06:55:30;;;;;;;0.82;0.50;;;;;;;;;;5033806;28;20497;-62
2024/01/22 06:57:56;;;;;;;0.52;0.52;;;;;;;;;;5033772;28;20075;-62
2024/01/22 07:00:22;;;;;;;0.50;0.50;;;;;;;;;;5033935;28;20041;-62
2024/01/22 07:02:51;;;;;;;0.60;0.60;;;;;;;;;;5034056;28;20164;-67
2024/01/22 07:05:18;;;;;;;0.60;0.60;;;;;;;;;;5034005;28;20141;-69
2024/01/22 07:07:44;;;;;;;1.10;0.80;;;;;;;;;;5016142;28;20417;-67
2024/01/22 07:10:10;;;;;;;0.88;0.80;;;;;;;;;;5033622;28;20038;-67
2024/01/22 07:12:36;;;;;;;1.55;1.10;;;;;;;;;;5034032;28;20128;-70
2024/01/22 07:15:04;;;;;;;1.05;0.93;;;;;;;;;;5033902;28;20041;-71
2024/01/22 07:17:30;;;;;;;2.03;0.98;;;;;;;;;;5016146;28;20085;-70
2024/01/22 07:19:56;;;;;;;2.20;1.00;;;;;;;;;;5034073;28;20091;-69
2024/01/22 07:22:22;;;;;;;2.33;1.23;;;;;;;;;;5033934;28;20045;-71
2024/01/22 07:24:49;;;;;;;1.15;0.90;;;;;;;;;;5017882;28;20053;-71
2024/01/22 07:27:15;;;;;;;3.42;1.55;;;;;;;;;;5038898;28;20043;-72
2024/01/22 07:29:42;;;;;;;3.17;1.23;;;;;;;;;;5035222;28;20136;-71
2024/01/22 07:32:09;;;;;;;1.98;1.10;;;;;;;;;;5034531;28;20055;-71
2024/01/22 07:34:35;;;;;;;2.40;1.65;;;;;;;;;;5035992;28;20049;-72
2024/01/22 07:37:01;;;;;;;1.88;1.20;;;;;;;;;;5017029;28;20405;-68
2024/01/22 07:39:27;;;;;;;2.92;1.52;;;;;;;;;;5033744;28;20049;-72
2024/01/22 07:41:53;;;;;;;1.70;1.40;;;;;;;;;;5016590;28;20041;-71
2024/01/22 07:44:19;;;;;;;3.22;1.63;;;;;;;;;;5033471;28;20041;-71
2024/01/22 07:46:45;;;;;;;1.55;1.35;;;;;;;;;;5033376;28;20038;-71
2024/01/22 07:49:11;;;;;;;4.40;1.70;;;;;;;;;;5034663;28;20072;-71
2024/01/22 07:51:37;;;;;;;1.73;1.00;;;;;;;;;;5033279;28;20084;-71
2024/01/22 07:54:05;;;;;;;1.45;1.10;;;;;;;;;;5033280;28;20061;-70
2024/01/22 07:56:39;;;;;;;3.25;1.83;;;;;;;;;;5033738;28;20132;-71
2024/01/22 07:59:05;;;;;;;2.72;1.55;;;;;;;;;;5033222;28;20041;-72
2024/01/22 08:01:31;;;;;;;2.55;1.40;;;;;;;;;;5033061;28;20049;-73
2024/01/22 08:03:57;;;;;;;2.58;1.55;;;;;;;;;;5015436;28;20485;-70
2024/01/22 08:06:23;;;;;;;4.05;1.95;;;;;;;;;;5033264;28;20099;-71
2024/01/22 08:08:49;;;;;;;3.78;2.08;;;;;;;;;;5033156;28;20469;-65
2024/01/22 08:11:15;;;;;;;2.45;1.73;;;;;;;;;;5014780;28;20098;-64
2024/01/22 08:13:41;;;;;;;1.65;1.10;;;;;;;;;;5032623;28;20172;-62
2024/01/22 08:16:07;;;;;;;2.75;1.52;;;;;;;;;;5032641;28;20041;-63
2024/01/22 08:18:33;;;;;;;1.20;1.10;;;;;;;;;;5032385;28;20099;-62
2024/01/22 08:20:59;;;;;;;3.30;2.00;;;;;;;;;;5032524;28;20052;-62
2024/01/22 08:23:25;;;;;;;3.15;1.55;;;;;;;;;;5032630;28;20112;-63
2024/01/22 08:25:51;;;;;;;3.75;1.90;;;;;;;;;;5032435;28;20171;-63
2024/01/22 08:28:17;;;;;;;3.17;1.52;;;;;;;;;;5030990;28;20099;-62
2024/01/22 08:30:43;;;;;;;3.83;2.17;;;;;;;;;;5032340;28;20448;-62
2024/01/22 08:33:09;;;;;;;3.35;1.80;;;;;;;;;;5032295;28;20045;-65
2024/01/22 08:35:35;;;;;;;1.92;1.58;;;;;;;;;;5031163;28;20092;-62
2024/01/22 08:38:01;;;;;;;2.35;1.70;;;;;;;;;;5031979;28;20080;-62
2024/01/22 08:40:27;;;;;;;2.65;1.45;;;;;;;;;;5031932;28;20057;-61
2024/01/22 08:42:56;;;;;;;2.22;1.48;;;;;;;;;;5032030;28;20047;-62
2024/01/22 08:45:23;;;;;;;2.33;1.30;;;;;;;;;;5032247;28;20116;-62
2024/01/22 08:47:49;;;;;;;2.15;1.38;;;;;;;;;;5032216;28;20049;-62
2024/01/22 08:50:18;;;;;;;1.42;1.13;;;;;;;;;;5031981;28;20050;-61
2024/01/22 08:52:54;;;;;;;2.80;1.50;;;;;;;;;;5032245;28;20049;-62
2024/01/22 08:55:27;;;;;;;2.25;1.23;;;;;;;;;;5012434;28;20057;-62
2024/01/22 08:57:54;;;;;;;2.20;1.52;;;;;;;;;;5012176;28;20046;-62
2024/01/22 09:00:21;;;;;;;2.67;1.60;;;;;;;;;;5012459;28;20402;-62
2024/01/22 09:02:47;;;;;;;1.75;1.27;;;;;;;;;;5012361;28;20076;-61
2024/01/22 09:05:14;;;;;;;2.63;1.52;;;;;;;;;;5012327;28;20053;-63
2024/01/22 09:07:41;;;;;;;5.03;2.25;;;;;;;;;;4994767;28;20086;-62
2024/01/22 09:10:07;;;;;;;3.17;1.80;;;;;;;;;;5014582;28;20053;-62
2024/01/22 09:12:34;;;;;;;3.25;2.53;;;;;;;;;;5016417;28;20092;-62
2024/01/22 09:15:00;;;;;;;2.70;1.88;;;;;;;;;;5016209;28;20052;-62
2024/01/22 09:17:27;;;;;;;4.18;2.45;;;;;;;;;;5016195;28;20490;-62
2024/01/22 09:19:53;;;;;;;3.65;2.13;;;;;;;;;;5016303;28;20761;-68
2024/01/22 09:22:19;;;;;;;4.72;2.47;;;;;;;;;;4998177;28;20041;-69
2024/01/22 09:24:46;;;;;;;4.35;2.75;;;;;;;;;;5015926;28;20042;-68
2024/01/22 09:27:12;;;;;;;3.72;2.60;;;;;;;;;;5015832;28;20088;-69
2024/01/22 09:29:38;;;;;;;6.00;3.15;;;;;;;;;;5015952;28;20061;-69
2024/01/22 09:32:04;;;;;;;4.78;3.25;;;;;;;;;;5015971;28;20041;-68
2024/01/22 09:34:30;;;;;;;7.03;3.50;;;;;;;;;;5015785;28;20034;-69
2024/01/22 09:36:56;;;;;;;6.35;2.60;;;;;;;;;;5015865;28;20397;-68
2024/01/22 09:39:22;;;;;;;6.03;3.40;;;;;;;;;;4998165;28;20041;-69
2024/01/22 09:41:51;;;;;;;4.03;2.30;;;;;;;;;;5015696;28;20052;-67
2024/01/22 09:44:17;;;;;;;6.82;3.13;;;;;;;;;;5015862;28;20046;-67
2024/01/22 09:46:44;;;;;;;6.65;3.40;;;;;;;;;;4997840;28;20046;-67
2024/01/22 09:49:10;;;;;;;4.75;2.88;;;;;;;;;;5015676;28;20484;-68
2024/01/22 09:51:36;;;;;;;4.78;2.63;;;;;;;;;;5015359;28;20077;-68
2024/01/22 09:54:09;;;;;;;5.47;2.40;;;;;;;;;;5017166;28;20232;-67
2024/01/22 09:56:48;;;;;;;3.97;2.65;;;;;;;;;;5017314;28;20053;-68
2024/01/22 09:59:17;;;;;;;4.18;2.50;;;;;;;;;;5035335;28;20525;-68
2024/01/22 10:01:44;;;;;;;4.90;3.00;;;;;;;;;;5034983;28;20048;-67
2024/01/22 10:04:14;;;;;;;7.03;3.47;;;;;;;;;;5035233;28;20171;-67
2024/01/22 10:06:43;;;;;;;6.57;3.20;;;;;;;;;;5017130;28;20045;-68
2024/01/22 10:09:10;;;;;;;4.68;2.67;;;;;;;;;;5034954;28;20038;-59
2024/01/22 10:11:36;;;;;;;4.70;2.75;;;;;;;;;;5016856;28;20045;-60
2024/01/22 10:14:02;;;;;;;5.65;3.25;;;;;;;;;;5034601;28;20458;-59
2024/01/22 10:16:29;;;;;;;8.45;3.40;;;;;;;;;;5034513;28;20460;-59
2024/01/22 10:18:56;;;;;;;6.70;2.97;;;;;;;;;;5034669;28;20040;-59
2024/01/22 10:21:22;;;;;;;5.72;3.20;;;;;;;;;;5033913;28;20121;-59
2024/01/22 10:24:08;;;;;;;7.25;3.20;;;;;;;;;;5016887;28;20049;-60
2024/01/22 10:26:34;;;;;;;5.57;3.03;;;;;;;;;;5034576;28;20065;-59
2024/01/22 10:29:13;;;;;;;6.50;3.63;;;;;;;;;;5034586;28;20533;-63
2024/01/22 10:32:00;;;;;;;7.60;3.42;;;;;;;;;;5034566;28;20053;-63
2024/01/22 10:34:30;;;;;;;4.50;2.60;;;;;;;;;;5033885;28;20045;-62
2024/01/22 10:37:07;;;;;;;7.22;3.58;;;;;;;;;;5034567;28;20087;-63
2024/01/22 10:39:33;;;;;;;6.57;3.53;;;;;;;;;;5034172;28;20042;-62
2024/01/22 10:42:12;;;;;;;9.30;3.63;;;;;;;;;;5034394;28;20115;-62
2024/01/22 10:44:39;;;;;;;4.78;3.28;;;;;;;;;;5034092;28;20046;-62
2024/01/22 10:47:05;;;;;;;8.55;3.95;;;;;;;;;;5034398;28;20091;-61
2024/01/22 10:49:32;;;;;;;7.38;3.88;;;;;;;;;;5034283;28;20042;-63
2024/01/22 10:52:02;;;;;;;8.00;3.50;;;;;;;;;;5034291;28;20042;-62
2024/01/22 10:54:36;;;;;;;7.53;4.10;;;;;;;;;;5033614;28;20398;-61
2024/01/22 10:57:15;;;;;;;8.50;3.75;;;;;;;;;;5032960;28;20091;-62
2024/01/22 10:59:46;;;;;;;5.43;3.40;;;;;;;;;;5033779;28;20044;-62
2024/01/22 11:02:22;;;;;;;7.68;4.13;;;;;;;;;;5034097;28;20037;-62
2024/01/22 11:04:50;;;;;;;9.20;4.57;;;;;;;;;;5034022;28;20045;-62
2024/01/22 11:07:17;;;;;;;5.75;3.28;;;;;;;;;;5034139;28;20041;-62
2024/01/22 11:09:45;;;;;;;7.45;3.63;;;;;;;;;;5033690;28;20076;-63
2024/01/22 11:12:14;;;;;;;6.18;3.67;;;;;;;;;;5033925;28;20049;-62
2024/01/22 11:14:41;;;;;;;7.60;3.35;;;;;;;;;;5034167;28;20037;-61
2024/01/22 11:17:09;;;;;;;6.35;3.38;;;;;;;;;;5033790;28;20497;-62
2024/01/22 11:19:35;;;;;;;8.65;4.10;;;;;;;;;;5033965;28;20037;-72
2024/01/22 11:22:05;;;;;;;8.80;4.03;;;;;;;;;;5033783;28;20067;-71
2024/01/22 11:24:31;;;;;;;5.80;3.65;;;;;;;;;;5033753;28;20040;-71
2024/01/22 11:26:57;;;;;;;5.55;3.67;;;;;;;;;;5015604;28;20049;-68
2024/01/22 11:29:27;;;;;;;4.43;3.17;;;;;;;;;;5033645;28;20052;-70
2024/01/22 11:31:53;;;;;;;6.25;2.92;;;;;;;;;;5033557;28;20148;-71
2024/01/22 11:34:38;;;;;;;7.40;3.35;;;;;;;;;;5032682;28;20076;-72
2024/01/22 11:37:04;;;;;;;5.68;3.10;;;;;;;;;;5033869;28;20069;-72
2024/01/22 11:39:33;;;;;;;4.70;2.58;;;;;;;;;;5033527;28;20043;-64
2024/01/22 11:42:22;;;;;;;4.35;3.55;;;;;;;;;;5033280;28;20037;-65
2024/01/22 11:44:49;;;;;;;8.02;3.58;;;;;;;;;;5032971;28;20041;-65
2024/01/22 11:47:15;;;;;;;6.00;3.05;;;;;;;;;;5033275;28;20124;-66
2024/01/22 11:49:42;;;;;;;4.35;2.58;;;;;;;;;;5033184;28;20382;-65
2024/01/22 11:52:14;;;;;;;6.97;3.22;;;;;;;;;;5032909;28;20133;-65
2024/01/22 11:55:01;;;;;;;10.48;4.30;;;;;;;;;;4857006;27;8317944;-65
2024/01/22 11:57:38;;;;;;;7.38;3.42;;;;;;;;;;5151308;27;20261;-66
2024/01/22 12:00:09;;;;;;;5.45;3.03;;;;;;;;;;5151256;27;20497;-67
2024/01/22 12:02:36;;;;;;;4.35;2.47;;;;;;;;;;5133253;27;20511;-65
2024/01/22 12:05:03;;;;;;;6.38;2.60;;;;;;;;;;5150822;27;20039;-65
2024/01/22 12:07:40;;;;;;;3.70;2.10;;;;;;;;;;5151033;27;20061;-65
2024/01/22 12:10:07;;;;;;;6.15;3.25;;;;;;;;;;5150954;27;20111;-65
2024/01/22 12:12:33;;;;;;;3.85;2.03;;;;;;;;;;5150887;27;20080;-65
2024/01/22 12:15:00;;;;;;;6.35;2.97;;;;;;;;;;5150691;27;20043;-65
2024/01/22 12:17:27;;;;;;;4.68;2.50;;;;;;;;;;5150474;27;20031;-65
2024/01/22 12:19:56;;;;;;;3.88;2.40;;;;;;;;;;5150918;27;20043;-66
2024/01/22 12:22:23;;;;;;;5.43;2.63;;;;;;;;;;5150515;27;20046;-65
2024/01/22 12:25:02;;;;;;;6.07;2.70;;;;;;;;;;5150817;27;20039;-65
2024/01/22 12:27:28;;;;;;;4.95;2.80;;;;;;;;;;5150764;27;20039;-65
2024/01/22 12:30:04;;;;;;;3.45;2.03;;;;;;;;;;5150847;27;20043;-65
2024/01/22 12:32:31;;;;;;;4.65;2.67;;;;;;;;;;5150218;27;20042;-65
2024/01/22 12:34:57;;;;;;;3.83;2.28;;;;;;;;;;5150548;27;20043;-64
2024/01/22 12:37:25;;;;;;;3.03;2.47;;;;;;;;;;5150265;27;20049;-65
2024/01/22 12:40:04;;;;;;;5.22;2.47;;;;;;;;;;5150124;27;20088;-65
2024/01/22 12:42:30;;;;;;;3.55;2.15;;;;;;;;;;5150535;27;20729;-65
2024/01/22 12:44:59;;;;;;;3.08;1.80;;;;;;;;;;5150467;27;20056;-67
2024/01/22 12:47:26;;;;;;;6.35;2.67;;;;;;;;;;5150162;27;20034;-65
2024/01/22 12:49:52;;;;;;;3.10;1.90;;;;;;;;;;5150517;27;20430;-65
2024/01/22 12:52:19;;;;;;;3.35;2.35;;;;;;;;;;5149940;27;20043;-66
2024/01/22 12:54:52;;;;;;;3.72;2.08;;;;;;;;;;5148668;27;20471;-66
2024/01/22 12:57:18;;;;;;;2.53;1.65;;;;;;;;;;5150265;27;20046;-64
2024/01/22 12:59:47;;;;;;;3.35;1.50;;;;;;;;;;5150171;27;20034;-65
2024/01/22 13:02:14;;;;;;;7.95;2.58;;;;;;;;;;5149717;27;20130;-64
2024/01/22 13:04:40;;;;;;;4.28;2.40;;;;;;;;;;5144644;27;20420;-63
2024/01/22 13:07:06;;;;;;;4.72;2.63;;;;;;;;;;5136150;27;20039;-64
2024/01/22 13:09:32;;;;;;;3.65;2.13;;;;;;;;;;5136099;27;20042;-64
2024/01/22 13:11:58;;;;;;;3.30;2.10;;;;;;;;;;5136128;27;20534;-64
2024/01/22 13:14:24;;;;;;;4.35;2.28;;;;;;;;;;5135728;27;20082;-64
2024/01/22 13:16:50;;;;;;;3.00;2.17;;;;;;;;;;5136086;27;20035;-63
2024/01/22 13:19:16;;;;;;;5.97;2.25;;;;;;;;;;5117365;27;20168;-63
2024/01/22 13:21:42;;;;;;;5.80;2.88;;;;;;;;;;5135891;27;20075;-64
2024/01/22 13:24:08;;;;;;;5.40;2.13;;;;;;;;;;5135890;27;20487;-64
2024/01/22 13:26:34;;;;;;;3.25;1.77;;;;;;;;;;5135603;27;20122;-63
2024/01/22 13:29:00;;;;;;;4.10;2.17;;;;;;;;;;5135774;27;20168;-64
2024/01/22 13:31:26;;;;;;;4.18;2.33;;;;;;;;;;5135625;27;20088;-67
2024/01/22 13:33:53;;;;;;;3.13;2.03;;;;;;;;;;5135361;27;20039;-65
2024/01/22 13:36:19;;;;;;;4.55;2.58;;;;;;;;;;5135595;27;20054;-64
2024/01/22 13:38:45;;;;;;;3.75;2.30;;;;;;;;;;5135531;27;20115;-64
2024/01/22 13:41:11;;;;;;;3.58;2.17;;;;;;;;;;5135648;27;20074;-64
2024/01/22 13:43:37;;;;;;;4.72;2.70;;;;;;;;;;5135264;27;20043;-64
2024/01/22 13:46:06;;;;;;;3.55;2.15;;;;;;;;;;5116776;27;20047;-64
2024/01/22 13:48:32;;;;;;;4.90;1.83;;;;;;;;;;5135199;27;20077;-64
2024/01/22 13:50:59;;;;;;;3.13;1.95;;;;;;;;;;5135352;27;20095;-64
2024/01/22 13:53:31;;;;;;;3.35;2.33;;;;;;;;;;5133883;27;20051;-64
2024/01/22 13:56:14;;;;;;;6.45;3.25;;;;;;;;;;5135225;27;20432;-65
2024/01/22 13:58:41;;;;;;;6.47;2.65;;;;;;;;;;5116567;27;20050;-65
2024/01/22 14:01:10;;;;;;;3.92;2.38;;;;;;;;;;5117257;27;20050;-61
2024/01/22 14:03:38;;;;;;;4.10;2.50;;;;;;;;;;5116719;27;20054;-61
2024/01/22 14:06:06;;;;;;;4.00;1.95;;;;;;;;;;5135050;27;20078;-61
2024/01/22 14:08:33;;;;;;;3.97;2.22;;;;;;;;;;5135193;27;20039;-60
2024/01/22 14:10:59;;;;;;;4.65;2.10;;;9.50;99.90;;;;;;5116984;27;20053;-60